sensor_id;sensor_type;location;lat;lon;timestamp;temperature;humidity
30379;DHT22;17168;49.164;9.060;2022-12-07T00:00:38;5.30;99.40
30379;DHT22;17168;49.164;9.060;2022-12-07T00:03:09;5.30;99.70
30379;DHT22;17168;49.164;9.060;2022-12-07T00:05:41;5.30;99.90
30379;DHT22;17168;49.164;9.060;2022-12-07T00:08:13;5.20;99.90
30379;DHT22;17168;49.164;9.060;2022-12-07T00:10:44;5.20;99.90
30379;DHT22;17168;49.164;9.060;2022-12-07T00:13:17;5.20;99.90
30379;DHT22;17168;49.164;9.060;2022-12-07T00:15:49;5.20;99.90
30379;DHT22;17168;49.164;9.060;2022-12-07T00:18:21;5.20;99.90
30379;DHT22;17168;49.164;9.060;2022-12-07T00:20:53;5.10;99.90
30379;DHT22;17168;49.164;9.060;2022-12-07T00:23:24;5.10;99.90
30379;DHT22;17168;49.164;9.060;2022-12-07T00:25:56;5.10;99.90
30379;DHT22;17168;49.164;9.060;2022-12-07T00:28:29;5.10;99.90
30379;DHT22;17168;49.164;9.060;2022-12-07T00:31:03;5.10;99.90
30379;DHT22;17168;49.164;9.060;2022-12-07T00:33:36;5.10;99.90
30379;DHT22;17168;49.164;9.060;2022-12-07T00:36:08;5.10;99.90
30379;DHT22;17168;49.164;9.060;2022-12-07T00:38:40;5.10;99.90
30379;DHT22;17168;49.164;9.060;2022-12-07T00:41:13;5.10;99.90
30379;DHT22;17168;49.164;9.060;2022-12-07T00:43:47;5.10;99.90
30379;DHT22;17168;49.164;9.060;2022-12-07T00:46:19;5.10;99.90
30379;DHT22;17168;49.164;9.060;2022-12-07T00:48:51;5.10;99.90
30379;DHT22;17168;49.164;9.060;2022-12-07T00:51:24;5.10;99.90
30379;DHT22;17168;49.164;9.060;2022-12-07T00:53:56;5.10;99.90
30379;DHT22;17168;49.164;9.060;2022-12-07T00:56:28;5.10;99.90
30379;DHT22;17168;49.164;9.060;2022-12-07T00:59:04;5.10;99.90
30379;DHT22;17168;49.164;9.060;2022-12-07T01:01:36;5.10;99.90
30379;DHT22;17168;49.164;9.060;2022-12-07T01:04:08;5.20;99.90
30379;DHT22;17168;49.164;9.060;2022-12-07T01:06:42;5.20;99.90
30379;DHT22;17168;49.164;9.060;2022-12-07T01:09:18;5.10;99.90
30379;DHT22;17168;49.164;9.060;2022-12-07T01:11:50;5.10;99.90
30379;DHT22;17168;49.164;9.060;2022-12-07T01:14:23;5.10;99.90
30379;DHT22;17168;49.164;9.060;2022-12-07T01:16:55;5.10;99.90
30379;DHT22;17168;49.164;9.060;2022-12-07T01:19:26;5.10;99.90
30379;DHT22;17168;49.164;9.060;2022-12-07T01:21:58;5.10;99.90
30379;DHT22;17168;49.164;9.060;2022-12-07T01:24:30;5.10;99.90
30379;DHT22;17168;49.164;9.060;2022-12-07T01:27:01;5.10;99.90
30379;DHT22;17168;49.164;9.060;2022-12-07T01:29:34;5.10;99.90
30379;DHT22;17168;49.164;9.060;2022-12-07T01:32:06;5.10;99.90
30379;DHT22;17168;49.164;9.060;2022-12-07T01:34:38;5.10;99.90
30379;DHT22;17168;49.164;9.060;2022-12-07T01:37:09;5.10;99.90
30379;DHT22;17168;49.164;9.060;2022-12-07T01:39:43;5.10;99.90
30379;DHT22;17168;49.164;9.060;2022-12-07T01:42:15;5.10;99.90
30379;DHT22;17168;49.164;9.060;2022-12-07T01:47:38;5.10;99.90
30379;DHT22;17168;49.164;9.060;2022-12-07T01:50:10;5.10;99.90
30379;DHT22;17168;49.164;9.060;2022-12-07T01:52:42;5.20;99.90
30379;DHT22;17168;49.164;9.060;2022-12-07T01:55:15;5.20;99.90
30379;DHT22;17168;49.164;9.060;2022-12-07T01:57:48;5.20;99.90
30379;DHT22;17168;49.164;9.060;2022-12-07T02:00:21;5.20;99.90
30379;DHT22;17168;49.164;9.060;2022-12-07T02:02:55;5.20;99.90
30379;DHT22;17168;49.164;9.060;2022-12-07T02:05:27;5.20;99.90
30379;DHT22;17168;49.164;9.060;2022-12-07T02:07:59;5.20;99.90
30379;DHT22;17168;49.164;9.060;2022-12-07T02:10:31;5.30;99.90
30379;DHT22;17168;49.164;9.060;2022-12-07T02:13:04;5.30;99.90
30379;DHT22;17168;49.164;9.060;2022-12-07T02:18:28;5.30;99.90
30379;DHT22;17168;49.164;9.060;2022-12-07T02:21:03;5.40;99.90
30379;DHT22;17168;49.164;9.060;2022-12-07T02:23:41;5.40;99.90
30379;DHT22;17168;49.164;9.060;2022-12-07T02:26:23;5.40;99.90
30379;DHT22;17168;49.164;9.060;2022-12-07T02:29:01;5.50;99.90
30379;DHT22;17168;49.164;9.060;2022-12-07T02:31:37;5.50;99.90
30379;DHT22;17168;49.164;9.060;2022-12-07T02:34:11;5.60;99.90
30379;DHT22;17168;49.164;9.060;2022-12-07T02:36:46;5.50;99.90
30379;DHT22;17168;49.164;9.060;2022-12-07T02:39:23;5.50;99.90
30379;DHT22;17168;49.164;9.060;2022-12-07T02:41:56;5.40;99.90
30379;DHT22;17168;49.164;9.060;2022-12-07T02:44:30;5.40;99.90
30379;DHT22;17168;49.164;9.060;2022-12-07T02:47:03;5.50;99.90
30379;DHT22;17168;49.164;9.060;2022-12-07T02:49:36;5.50;99.90
30379;DHT22;17168;49.164;9.060;2022-12-07T02:52:09;5.50;99.90
30379;DHT22;17168;49.164;9.060;2022-12-07T02:54:40;5.50;99.90
30379;DHT22;17168;49.164;9.060;2022-12-07T02:57:15;5.50;99.90
30379;DHT22;17168;49.164;9.060;2022-12-07T02:59:56;5.50;99.90
30379;DHT22;17168;49.164;9.060;2022-12-07T03:02:34;5.50;99.90
30379;DHT22;17168;49.164;9.060;2022-12-07T03:05:18;5.50;99.90
30379;DHT22;17168;49.164;9.060;2022-12-07T03:07:55;5.50;99.90
30379;DHT22;17168;49.164;9.060;2022-12-07T03:10:33;5.40;99.90
30379;DHT22;17168;49.164;9.060;2022-12-07T03:13:07;5.40;99.90
30379;DHT22;17168;49.164;9.060;2022-12-07T03:15:42;5.40;99.90
30379;DHT22;17168;49.164;9.060;2022-12-07T03:18:15;5.40;99.90
30379;DHT22;17168;49.164;9.060;2022-12-07T03:20:48;5.40;99.90
30379;DHT22;17168;49.164;9.060;2022-12-07T03:23:21;5.30;99.90
30379;DHT22;17168;49.164;9.060;2022-12-07T03:25:55;5.30;99.90
30379;DHT22;17168;49.164;9.060;2022-12-07T03:28:32;5.30;99.90
30379;DHT22;17168;49.164;9.060;2022-12-07T03:31:08;5.30;99.90
30379;DHT22;17168;49.164;9.060;2022-12-07T03:33:43;5.30;99.90
30379;DHT22;17168;49.164;9.060;2022-12-07T03:36:20;5.20;99.90
30379;DHT22;17168;49.164;9.060;2022-12-07T03:38:53;5.20;99.90
30379;DHT22;17168;49.164;9.060;2022-12-07T03:41:27;5.30;99.90
30379;DHT22;17168;49.164;9.060;2022-12-07T03:43:59;5.20;99.90
30379;DHT22;17168;49.164;9.060;2022-12-07T03:46:34;5.20;99.90
30379;DHT22;17168;49.164;9.060;2022-12-07T03:49:08;5.20;99.90
30379;DHT22;17168;49.164;9.060;2022-12-07T03:51:43;5.20;99.90
30379;DHT22;17168;49.164;9.060;2022-12-07T03:54:18;5.10;99.90
30379;DHT22;17168;49.164;9.060;2022-12-07T03:56:51;5.10;99.90
30379;DHT22;17168;49.164;9.060;2022-12-07T03:59:23;5.10;99.90
30379;DHT22;17168;49.164;9.060;2022-12-07T04:02:01;5.10;99.90
30379;DHT22;17168;49.164;9.060;2022-12-07T04:04:33;5.10;99.90
30379;DHT22;17168;49.164;9.060;2022-12-07T04:07:05;5.10;99.90
30379;DHT22;17168;49.164;9.060;2022-12-07T04:09:37;5.00;99.90
30379;DHT22;17168;49.164;9.060;2022-12-07T04:12:08;5.10;99.90
30379;DHT22;17168;49.164;9.060;2022-12-07T04:14:40;5.10;99.90
30379;DHT22;17168;49.164;9.060;2022-12-07T04:17:13;5.10;99.90
30379;DHT22;17168;49.164;9.060;2022-12-07T04:19:45;5.00;99.90
30379;DHT22;17168;49.164;9.060;2022-12-07T04:22:16;5.00;99.90
30379;DHT22;17168;49.164;9.060;2022-12-07T04:24:48;5.00;99.90
30379;DHT22;17168;49.164;9.060;2022-12-07T04:27:19;5.00;99.90
30379;DHT22;17168;49.164;9.060;2022-12-07T04:29:51;5.00;99.90
30379;DHT22;17168;49.164;9.060;2022-12-07T04:32:24;5.00;99.90
30379;DHT22;17168;49.164;9.060;2022-12-07T04:34:56;5.00;99.90
30379;DHT22;17168;49.164;9.060;2022-12-07T04:37:27;4.90;99.90
30379;DHT22;17168;49.164;9.060;2022-12-07T04:39:59;4.90;99.90
30379;DHT22;17168;49.164;9.060;2022-12-07T04:42:31;4.90;99.90
30379;DHT22;17168;49.164;9.060;2022-12-07T04:45:03;4.90;99.90
30379;DHT22;17168;49.164;9.060;2022-12-07T04:47:36;4.90;99.90
30379;DHT22;17168;49.164;9.060;2022-12-07T04:50:09;4.90;99.90
30379;DHT22;17168;49.164;9.060;2022-12-07T04:52:40;4.90;99.90
30379;DHT22;17168;49.164;9.060;2022-12-07T04:55:12;4.90;99.90
30379;DHT22;17168;49.164;9.060;2022-12-07T04:57:44;4.90;99.90
30379;DHT22;17168;49.164;9.060;2022-12-07T05:00:16;4.90;99.90
30379;DHT22;17168;49.164;9.060;2022-12-07T05:02:49;4.90;99.90
30379;DHT22;17168;49.164;9.060;2022-12-07T05:05:20;4.90;99.90
30379;DHT22;17168;49.164;9.060;2022-12-07T05:07:52;4.90;99.90
30379;DHT22;17168;49.164;9.060;2022-12-07T05:10:24;4.90;99.90
30379;DHT22;17168;49.164;9.060;2022-12-07T05:12:57;4.90;99.90
30379;DHT22;17168;49.164;9.060;2022-12-07T05:15:29;4.90;99.90
30379;DHT22;17168;49.164;9.060;2022-12-07T05:18:02;4.90;99.90
30379;DHT22;17168;49.164;9.060;2022-12-07T05:20:34;4.80;99.90
30379;DHT22;17168;49.164;9.060;2022-12-07T05:23:13;4.90;99.90
30379;DHT22;17168;49.164;9.060;2022-12-07T05:25:44;4.90;99.90
30379;DHT22;17168;49.164;9.060;2022-12-07T05:28:16;4.80;99.90
30379;DHT22;17168;49.164;9.060;2022-12-07T05:30:48;4.90;99.90
30379;DHT22;17168;49.164;9.060;2022-12-07T05:33:21;4.80;99.90
30379;DHT22;17168;49.164;9.060;2022-12-07T05:35:53;4.80;99.90
30379;DHT22;17168;49.164;9.060;2022-12-07T05:38:24;4.80;99.90
30379;DHT22;17168;49.164;9.060;2022-12-07T05:41:00;4.80;99.90
30379;DHT22;17168;49.164;9.060;2022-12-07T05:43:33;4.80;99.90
30379;DHT22;17168;49.164;9.060;2022-12-07T05:46:08;4.80;99.90
30379;DHT22;17168;49.164;9.060;2022-12-07T05:48:41;4.80;99.90
30379;DHT22;17168;49.164;9.060;2022-12-07T05:51:12;4.90;99.90
30379;DHT22;17168;49.164;9.060;2022-12-07T05:53:44;4.90;99.90
30379;DHT22;17168;49.164;9.060;2022-12-07T05:56:16;4.90;99.90
30379;DHT22;17168;49.164;9.060;2022-12-07T05:58:47;4.90;99.90
30379;DHT22;17168;49.164;9.060;2022-12-07T06:01:37;4.90;99.90
30379;DHT22;17168;49.164;9.060;2022-12-07T06:04:10;4.90;99.90
30379;DHT22;17168;49.164;9.060;2022-12-07T06:06:42;4.90;99.90
30379;DHT22;17168;49.164;9.060;2022-12-07T06:09:14;4.80;99.90
30379;DHT22;17168;49.164;9.060;2022-12-07T06:11:46;4.80;99.90
30379;DHT22;17168;49.164;9.060;2022-12-07T06:14:36;4.80;99.90
30379;DHT22;17168;49.164;9.060;2022-12-07T06:17:08;4.80;99.90
30379;DHT22;17168;49.164;9.060;2022-12-07T06:19:41;4.80;99.90
30379;DHT22;17168;49.164;9.060;2022-12-07T06:22:13;4.80;99.90
30379;DHT22;17168;49.164;9.060;2022-12-07T06:24:45;4.80;99.90
30379;DHT22;17168;49.164;9.060;2022-12-07T06:27:17;4.80;99.90
30379;DHT22;17168;49.164;9.060;2022-12-07T06:29:48;4.80;99.90
30379;DHT22;17168;49.164;9.060;2022-12-07T06:32:26;4.80;99.90
30379;DHT22;17168;49.164;9.060;2022-12-07T06:35:00;4.80;99.90
30379;DHT22;17168;49.164;9.060;2022-12-07T06:37:32;4.80;99.90
30379;DHT22;17168;49.164;9.060;2022-12-07T06:40:05;4.90;99.90
30379;DHT22;17168;49.164;9.060;2022-12-07T06:42:37;4.90;99.90
30379;DHT22;17168;49.164;9.060;2022-12-07T06:45:08;4.90;99.90
30379;DHT22;17168;49.164;9.060;2022-12-07T07:00:47;5.00;99.90
30379;DHT22;17168;49.164;9.060;2022-12-07T07:03:38;5.00;99.90
30379;DHT22;17168;49.164;9.060;2022-12-07T07:09:31;5.00;99.90
30379;DHT22;17168;49.164;9.060;2022-12-07T07:15:13;5.00;99.90
30379;DHT22;17168;49.164;9.060;2022-12-07T07:17:48;5.00;99.90
30379;DHT22;17168;49.164;9.060;2022-12-07T07:20:20;5.00;99.90
30379;DHT22;17168;49.164;9.060;2022-12-07T07:22:53;5.00;99.90
30379;DHT22;17168;49.164;9.060;2022-12-07T07:25:25;5.10;99.90
30379;DHT22;17168;49.164;9.060;2022-12-07T07:27:57;5.10;99.90
30379;DHT22;17168;49.164;9.060;2022-12-07T07:30:28;5.10;99.90
30379;DHT22;17168;49.164;9.060;2022-12-07T07:33:02;5.20;99.90
30379;DHT22;17168;49.164;9.060;2022-12-07T07:35:34;5.20;99.90
30379;DHT22;17168;49.164;9.060;2022-12-07T07:38:06;5.20;99.90
30379;DHT22;17168;49.164;9.060;2022-12-07T07:40:37;5.20;99.90
30379;DHT22;17168;49.164;9.060;2022-12-07T07:43:09;5.20;99.90
30379;DHT22;17168;49.164;9.060;2022-12-07T07:45:41;5.20;99.90
30379;DHT22;17168;49.164;9.060;2022-12-07T07:48:14;5.20;99.90
30379;DHT22;17168;49.164;9.060;2022-12-07T07:50:45;5.30;99.90
30379;DHT22;17168;49.164;9.060;2022-12-07T07:53:17;5.30;99.90
30379;DHT22;17168;49.164;9.060;2022-12-07T07:55:52;5.40;99.90
30379;DHT22;17168;49.164;9.060;2022-12-07T07:58:24;5.40;99.90
30379;DHT22;17168;49.164;9.060;2022-12-07T08:00:56;5.40;99.90
30379;DHT22;17168;49.164;9.060;2022-12-07T08:03:29;5.40;99.90
30379;DHT22;17168;49.164;9.060;2022-12-07T08:06:01;5.50;99.90
30379;DHT22;17168;49.164;9.060;2022-12-07T08:08:33;5.40;99.90
30379;DHT22;17168;49.164;9.060;2022-12-07T08:11:04;5.40;99.90
30379;DHT22;17168;49.164;9.060;2022-12-07T08:13:36;5.40;99.90
30379;DHT22;17168;49.164;9.060;2022-12-07T08:16:09;5.40;99.90
30379;DHT22;17168;49.164;9.060;2022-12-07T08:18:42;5.30;99.90
30379;DHT22;17168;49.164;9.060;2022-12-07T08:21:14;5.30;99.90
30379;DHT22;17168;49.164;9.060;2022-12-07T08:23:46;5.30;99.90
30379;DHT22;17168;49.164;9.060;2022-12-07T08:26:18;5.20;99.90
30379;DHT22;17168;49.164;9.060;2022-12-07T08:28:49;5.20;99.90
30379;DHT22;17168;49.164;9.060;2022-12-07T08:31:21;5.10;99.90
30379;DHT22;17168;49.164;9.060;2022-12-07T08:33:55;5.10;99.90
30379;DHT22;17168;49.164;9.060;2022-12-07T08:36:26;5.10;99.90
30379;DHT22;17168;49.164;9.060;2022-12-07T08:38:58;5.00;99.90
30379;DHT22;17168;49.164;9.060;2022-12-07T08:41:50;5.00;99.90
30379;DHT22;17168;49.164;9.060;2022-12-07T08:44:21;5.00;99.90
30379;DHT22;17168;49.164;9.060;2022-12-07T08:46:53;5.00;99.90
30379;DHT22;17168;49.164;9.060;2022-12-07T08:49:30;5.00;99.90
30379;DHT22;17168;49.164;9.060;2022-12-07T08:52:03;5.10;99.90
30379;DHT22;17168;49.164;9.060;2022-12-07T08:54:36;5.10;99.90
30379;DHT22;17168;49.164;9.060;2022-12-07T08:57:10;5.10;99.90
30379;DHT22;17168;49.164;9.060;2022-12-07T08:59:41;5.10;99.90
30379;DHT22;17168;49.164;9.060;2022-12-07T09:02:13;5.20;99.90
30379;DHT22;17168;49.164;9.060;2022-12-07T09:04:46;5.20;99.90
30379;DHT22;17168;49.164;9.060;2022-12-07T09:07:18;5.20;99.90
30379;DHT22;17168;49.164;9.060;2022-12-07T09:09:49;5.20;99.90
30379;DHT22;17168;49.164;9.060;2022-12-07T09:12:21;5.30;99.90
30379;DHT22;17168;49.164;9.060;2022-12-07T09:14:53;5.30;99.90
30379;DHT22;17168;49.164;9.060;2022-12-07T09:17:24;5.30;99.90
30379;DHT22;17168;49.164;9.060;2022-12-07T09:19:57;5.40;99.90
30379;DHT22;17168;49.164;9.060;2022-12-07T09:22:29;5.40;99.90
30379;DHT22;17168;49.164;9.060;2022-12-07T09:25:02;5.40;99.90
30379;DHT22;17168;49.164;9.060;2022-12-07T09:27:34;5.40;99.90
30379;DHT22;17168;49.164;9.060;2022-12-07T09:30:06;5.50;99.90
30379;DHT22;17168;49.164;9.060;2022-12-07T09:32:38;5.50;99.90
30379;DHT22;17168;49.164;9.060;2022-12-07T09:35:11;5.50;99.90
30379;DHT22;17168;49.164;9.060;2022-12-07T09:37:42;5.50;99.90
30379;DHT22;17168;49.164;9.060;2022-12-07T09:40:14;5.60;99.90
30379;DHT22;17168;49.164;9.060;2022-12-07T09:42:47;5.60;99.90
30379;DHT22;17168;49.164;9.060;2022-12-07T09:45:21;5.60;99.90
30379;DHT22;17168;49.164;9.060;2022-12-07T09:47:53;5.60;99.90
30379;DHT22;17168;49.164;9.060;2022-12-07T09:50:27;5.60;99.90
30379;DHT22;17168;49.164;9.060;2022-12-07T09:53:03;5.60;99.90
30379;DHT22;17168;49.164;9.060;2022-12-07T09:55:37;5.60;99.90
30379;DHT22;17168;49.164;9.060;2022-12-07T09:58:10;5.60;99.90
30379;DHT22;17168;49.164;9.060;2022-12-07T10:00:44;5.70;99.90
30379;DHT22;17168;49.164;9.060;2022-12-07T10:03:16;5.70;99.90
30379;DHT22;17168;49.164;9.060;2022-12-07T10:05:50;5.70;99.90
30379;DHT22;17168;49.164;9.060;2022-12-07T10:08:22;5.80;99.90
30379;DHT22;17168;49.164;9.060;2022-12-07T10:10:55;5.90;99.90
30379;DHT22;17168;49.164;9.060;2022-12-07T10:13:34;5.90;99.90
30379;DHT22;17168;49.164;9.060;2022-12-07T10:16:07;5.90;99.90
30379;DHT22;17168;49.164;9.060;2022-12-07T10:18:58;5.90;99.90
30379;DHT22;17168;49.164;9.060;2022-12-07T10:22:07;5.90;99.90
30379;DHT22;17168;49.164;9.060;2022-12-07T10:24:40;5.90;99.90
30379;DHT22;17168;49.164;9.060;2022-12-07T10:27:17;5.90;99.90
30379;DHT22;17168;49.164;9.060;2022-12-07T10:29:50;6.00;99.90
30379;DHT22;17168;49.164;9.060;2022-12-07T10:32:28;6.00;99.90
30379;DHT22;17168;49.164;9.060;2022-12-07T10:38:00;6.00;99.90
30379;DHT22;17168;49.164;9.060;2022-12-07T10:40:33;5.90;99.90
30379;DHT22;17168;49.164;9.060;2022-12-07T10:43:07;5.90;99.90
30379;DHT22;17168;49.164;9.060;2022-12-07T10:46:01;5.90;99.90
30379;DHT22;17168;49.164;9.060;2022-12-07T10:48:46;6.00;99.90
30379;DHT22;17168;49.164;9.060;2022-12-07T10:51:21;6.00;99.90
30379;DHT22;17168;49.164;9.060;2022-12-07T10:53:59;5.90;99.90
30379;DHT22;17168;49.164;9.060;2022-12-07T10:56:51;6.00;99.90
30379;DHT22;17168;49.164;9.060;2022-12-07T10:59:30;6.00;99.90
30379;DHT22;17168;49.164;9.060;2022-12-07T11:02:10;6.00;99.90
30379;DHT22;17168;49.164;9.060;2022-12-07T11:04:55;6.00;99.90
30379;DHT22;17168;49.164;9.060;2022-12-07T11:07:34;6.00;99.90
30379;DHT22;17168;49.164;9.060;2022-12-07T11:10:13;6.00;99.90
30379;DHT22;17168;49.164;9.060;2022-12-07T11:12:49;6.00;99.90
30379;DHT22;17168;49.164;9.060;2022-12-07T11:15:24;6.10;99.90
30379;DHT22;17168;49.164;9.060;2022-12-07T11:18:00;6.10;99.90
30379;DHT22;17168;49.164;9.060;2022-12-07T11:20:37;6.10;99.90
30379;DHT22;17168;49.164;9.060;2022-12-07T11:23:13;6.10;99.90
30379;DHT22;17168;49.164;9.060;2022-12-07T11:25:53;6.10;99.90
30379;DHT22;17168;49.164;9.060;2022-12-07T11:28:31;6.10;99.90
30379;DHT22;17168;49.164;9.060;2022-12-07T11:31:06;6.10;99.90
30379;DHT22;17168;49.164;9.060;2022-12-07T11:33:43;6.20;99.90
30379;DHT22;17168;49.164;9.060;2022-12-07T11:36:22;6.20;99.90
30379;DHT22;17168;49.164;9.060;2022-12-07T11:38:56;6.20;99.90
30379;DHT22;17168;49.164;9.060;2022-12-07T11:41:31;6.20;99.90
30379;DHT22;17168;49.164;9.060;2022-12-07T11:44:05;6.20;99.90
30379;DHT22;17168;49.164;9.060;2022-12-07T11:46:43;6.20;99.90
30379;DHT22;17168;49.164;9.060;2022-12-07T11:49:19;6.20;99.90
30379;DHT22;17168;49.164;9.060;2022-12-07T11:51:52;6.20;99.90
30379;DHT22;17168;49.164;9.060;2022-12-07T11:54:27;6.20;99.90
30379;DHT22;17168;49.164;9.060;2022-12-07T11:57:04;6.20;99.90
30379;DHT22;17168;49.164;9.060;2022-12-07T11:59:36;6.30;99.90
30379;DHT22;17168;49.164;9.060;2022-12-07T12:02:11;6.30;99.90
30379;DHT22;17168;49.164;9.060;2022-12-07T12:04:47;6.30;99.90
30379;DHT22;17168;49.164;9.060;2022-12-07T12:07:21;6.30;99.90
30379;DHT22;17168;49.164;9.060;2022-12-07T12:10:15;6.40;99.90
30379;DHT22;17168;49.164;9.060;2022-12-07T12:12:56;6.50;99.90
30379;DHT22;17168;49.164;9.060;2022-12-07T12:15:58;6.50;99.90
30379;DHT22;17168;49.164;9.060;2022-12-07T12:18:36;6.50;99.90
30379;DHT22;17168;49.164;9.060;2022-12-07T12:21:12;6.50;99.90
30379;DHT22;17168;49.164;9.060;2022-12-07T12:23:50;6.60;99.90
30379;DHT22;17168;49.164;9.060;2022-12-07T12:26:26;6.60;99.90
30379;DHT22;17168;49.164;9.060;2022-12-07T12:29:03;6.70;99.90
30379;DHT22;17168;49.164;9.060;2022-12-07T12:31:37;6.80;99.90
30379;DHT22;17168;49.164;9.060;2022-12-07T12:34:30;7.00;99.90
30379;DHT22;17168;49.164;9.060;2022-12-07T12:37:02;7.10;99.90
30379;DHT22;17168;49.164;9.060;2022-12-07T12:39:38;7.50;99.90
30379;DHT22;17168;49.164;9.060;2022-12-07T12:42:18;7.90;99.90
30379;DHT22;17168;49.164;9.060;2022-12-07T12:45:18;8.30;99.90
30379;DHT22;17168;49.164;9.060;2022-12-07T12:47:56;8.30;99.90
30379;DHT22;17168;49.164;9.060;2022-12-07T12:50:31;8.20;99.90
30379;DHT22;17168;49.164;9.060;2022-12-07T12:53:20;8.10;99.90
30379;DHT22;17168;49.164;9.060;2022-12-07T12:56:21;7.90;99.60
30379;DHT22;17168;49.164;9.060;2022-12-07T12:59:22;7.70;99.30
30379;DHT22;17168;49.164;9.060;2022-12-07T13:01:57;7.50;99.20
30379;DHT22;17168;49.164;9.060;2022-12-07T13:04:39;7.30;99.20
30379;DHT22;17168;49.164;9.060;2022-12-07T13:10:18;7.20;99.50
30379;DHT22;17168;49.164;9.060;2022-12-07T13:12:55;7.10;99.60
30379;DHT22;17168;49.164;9.060;2022-12-07T13:15:35;7.00;99.60
30379;DHT22;17168;49.164;9.060;2022-12-07T13:18:24;6.90;99.70
30379;DHT22;17168;49.164;9.060;2022-12-07T13:20:57;6.80;99.90
30379;DHT22;17168;49.164;9.060;2022-12-07T13:23:31;6.70;99.90
30379;DHT22;17168;49.164;9.060;2022-12-07T13:26:15;6.60;99.90
30379;DHT22;17168;49.164;9.060;2022-12-07T13:28:50;6.60;99.90
30379;DHT22;17168;49.164;9.060;2022-12-07T13:31:32;6.60;99.90
30379;DHT22;17168;49.164;9.060;2022-12-07T13:34:29;6.50;99.90
30379;DHT22;17168;49.164;9.060;2022-12-07T13:37:04;6.50;99.90
30379;DHT22;17168;49.164;9.060;2022-12-07T13:39:45;6.40;99.90
30379;DHT22;17168;49.164;9.060;2022-12-07T13:42:24;6.40;99.90
30379;DHT22;17168;49.164;9.060;2022-12-07T13:44:59;6.40;99.90
30379;DHT22;17168;49.164;9.060;2022-12-07T13:47:36;6.40;99.90
30379;DHT22;17168;49.164;9.060;2022-12-07T13:50:24;6.40;99.90
30379;DHT22;17168;49.164;9.060;2022-12-07T13:52:58;6.40;99.90
30379;DHT22;17168;49.164;9.060;2022-12-07T13:55:30;6.40;99.90
30379;DHT22;17168;49.164;9.060;2022-12-07T13:58:02;6.40;99.90
30379;DHT22;17168;49.164;9.060;2022-12-07T14:00:34;6.40;99.90
30379;DHT22;17168;49.164;9.060;2022-12-07T14:03:27;6.40;99.90
30379;DHT22;17168;49.164;9.060;2022-12-07T14:06:05;6.40;99.90
30379;DHT22;17168;49.164;9.060;2022-12-07T14:08:37;6.40;99.90
30379;DHT22;17168;49.164;9.060;2022-12-07T14:11:14;6.40;99.90
30379;DHT22;17168;49.164;9.060;2022-12-07T14:13:56;6.40;99.90
30379;DHT22;17168;49.164;9.060;2022-12-07T14:16:31;6.40;99.90
30379;DHT22;17168;49.164;9.060;2022-12-07T14:19:04;6.30;99.90
30379;DHT22;17168;49.164;9.060;2022-12-07T14:21:38;6.30;99.90
30379;DHT22;17168;49.164;9.060;2022-12-07T14:24:17;6.30;99.90
30379;DHT22;17168;49.164;9.060;2022-12-07T14:26:50;6.30;99.90
30379;DHT22;17168;49.164;9.060;2022-12-07T14:29:30;6.30;99.90
30379;DHT22;17168;49.164;9.060;2022-12-07T14:32:18;6.30;99.90
30379;DHT22;17168;49.164;9.060;2022-12-07T14:34:56;6.30;99.90
30379;DHT22;17168;49.164;9.060;2022-12-07T14:37:30;6.30;99.90
30379;DHT22;17168;49.164;9.060;2022-12-07T14:40:02;6.20;99.90
30379;DHT22;17168;49.164;9.060;2022-12-07T14:42:34;6.20;99.90
30379;DHT22;17168;49.164;9.060;2022-12-07T14:45:13;6.20;99.90
30379;DHT22;17168;49.164;9.060;2022-12-07T14:47:46;6.20;99.90
30379;DHT22;17168;49.164;9.060;2022-12-07T14:50:41;6.20;99.90
30379;DHT22;17168;49.164;9.060;2022-12-07T14:53:36;6.20;99.90
30379;DHT22;17168;49.164;9.060;2022-12-07T14:56:09;6.10;99.90
30379;DHT22;17168;49.164;9.060;2022-12-07T14:58:41;6.10;99.90
30379;DHT22;17168;49.164;9.060;2022-12-07T15:01:13;6.10;99.90
30379;DHT22;17168;49.164;9.060;2022-12-07T15:03:45;6.20;99.90
30379;DHT22;17168;49.164;9.060;2022-12-07T15:06:18;6.10;99.90
30379;DHT22;17168;49.164;9.060;2022-12-07T15:08:51;6.10;99.90
30379;DHT22;17168;49.164;9.060;2022-12-07T15:11:23;6.10;99.90
30379;DHT22;17168;49.164;9.060;2022-12-07T15:13:55;6.10;99.90
30379;DHT22;17168;49.164;9.060;2022-12-07T15:16:45;6.10;99.90
30379;DHT22;17168;49.164;9.060;2022-12-07T15:19:36;6.00;99.90
30379;DHT22;17168;49.164;9.060;2022-12-07T15:22:08;6.00;99.90
30379;DHT22;17168;49.164;9.060;2022-12-07T15:24:43;6.00;99.90
30379;DHT22;17168;49.164;9.060;2022-12-07T15:27:15;5.90;99.90
30379;DHT22;17168;49.164;9.060;2022-12-07T15:29:46;5.80;99.90
30379;DHT22;17168;49.164;9.060;2022-12-07T15:32:18;5.70;99.90
30379;DHT22;17168;49.164;9.060;2022-12-07T15:34:50;5.60;99.90
30379;DHT22;17168;49.164;9.060;2022-12-07T15:37:21;5.60;99.90
30379;DHT22;17168;49.164;9.060;2022-12-07T15:39:54;5.50;99.90
30379;DHT22;17168;49.164;9.060;2022-12-07T15:42:26;5.50;99.90
30379;DHT22;17168;49.164;9.060;2022-12-07T15:44:58;5.50;99.90
30379;DHT22;17168;49.164;9.060;2022-12-07T15:47:37;5.50;99.90
30379;DHT22;17168;49.164;9.060;2022-12-07T15:50:29;5.50;99.90
30379;DHT22;17168;49.164;9.060;2022-12-07T15:53:00;5.40;99.90
30379;DHT22;17168;49.164;9.060;2022-12-07T15:55:33;5.40;99.90
30379;DHT22;17168;49.164;9.060;2022-12-07T15:58:05;5.40;99.90
30379;DHT22;17168;49.164;9.060;2022-12-07T16:00:36;5.40;99.90
30379;DHT22;17168;49.164;9.060;2022-12-07T16:03:08;5.40;99.90
30379;DHT22;17168;49.164;9.060;2022-12-07T16:05:40;5.40;99.90
30379;DHT22;17168;49.164;9.060;2022-12-07T16:08:11;5.40;99.90
30379;DHT22;17168;49.164;9.060;2022-12-07T16:10:46;5.40;99.90
30379;DHT22;17168;49.164;9.060;2022-12-07T16:13:17;5.40;99.90
30379;DHT22;17168;49.164;9.060;2022-12-07T16:15:50;5.40;99.90
30379;DHT22;17168;49.164;9.060;2022-12-07T16:18:22;5.40;99.90
30379;DHT22;17168;49.164;9.060;2022-12-07T16:20:53;5.40;99.90
30379;DHT22;17168;49.164;9.060;2022-12-07T16:23:25;5.30;99.90
30379;DHT22;17168;49.164;9.060;2022-12-07T16:26:04;5.30;99.90
30379;DHT22;17168;49.164;9.060;2022-12-07T16:28:36;5.30;99.90
30379;DHT22;17168;49.164;9.060;2022-12-07T16:31:08;5.30;99.90
30379;DHT22;17168;49.164;9.060;2022-12-07T16:33:41;5.30;99.90
30379;DHT22;17168;49.164;9.060;2022-12-07T16:36:14;5.30;99.90
30379;DHT22;17168;49.164;9.060;2022-12-07T16:39:08;5.40;99.90
30379;DHT22;17168;49.164;9.060;2022-12-07T16:41:41;5.70;99.90
30379;DHT22;17168;49.164;9.060;2022-12-07T16:44:13;5.90;99.90
30379;DHT22;17168;49.164;9.060;2022-12-07T16:46:44;6.20;99.90
30379;DHT22;17168;49.164;9.060;2022-12-07T16:49:16;6.40;99.90
30379;DHT22;17168;49.164;9.060;2022-12-07T16:51:50;6.60;99.90
30379;DHT22;17168;49.164;9.060;2022-12-07T16:54:42;6.80;99.90
30379;DHT22;17168;49.164;9.060;2022-12-07T16:57:16;7.00;99.90
30379;DHT22;17168;49.164;9.060;2022-12-07T16:59:53;7.10;99.90
30379;DHT22;17168;49.164;9.060;2022-12-07T17:02:25;7.30;99.90
30379;DHT22;17168;49.164;9.060;2022-12-07T17:05:08;7.40;99.90